createdAt,value
2023-02-11T00:00:23.560Z,100589.95
2023-02-11T00:03:10.382Z,100584.35
2023-02-11T00:05:37.328Z,100579.95
2023-02-11T00:08:04.539Z,100577.80
2023-02-11T00:10:31.214Z,100576.91
2023-02-11T00:12:57.858Z,100575.52
2023-02-11T00:15:24.638Z,100581.89
2023-02-11T00:17:51.485Z,100586.60
2023-02-11T00:20:18.541Z,100593.56
2023-02-11T00:22:45.408Z,100586.72
2023-02-11T00:25:12.684Z,100585.71
2023-02-11T00:27:39.492Z,100591.20
2023-02-11T00:30:07.072Z,100595.66
2023-02-11T00:32:34.060Z,100596.98
2023-02-11T00:35:01.081Z,100597.10
2023-02-11T00:37:28.603Z,100595.83
2023-02-11T00:39:55.371Z,100599.98
2023-02-11T00:42:22.368Z,100610.00
2023-02-11T00:44:49.677Z,100614.92
2023-02-11T00:47:16.810Z,100612.06
2023-02-11T00:49:46.460Z,100611.59
2023-02-11T00:52:13.570Z,100617.54
2023-02-11T00:54:40.697Z,100616.81
2023-02-11T00:57:07.533Z,100616.90
2023-02-11T00:59:34.846Z,100620.69
2023-02-11T01:02:01.925Z,100626.28
2023-02-11T01:04:28.852Z,100625.03
2023-02-11T01:06:55.450Z,100627.50
2023-02-11T01:36:41.541Z,100581.48
2023-02-11T01:39:09.730Z,100562.42
2023-02-11T01:41:38.138Z,100559.54
2023-02-11T01:44:45.074Z,100557.17
2023-02-11T01:47:13.598Z,100565.14
2023-02-11T01:49:48.102Z,100571.96
2023-02-11T01:52:26.055Z,100574.92
2023-02-11T01:55:18.610Z,100582.98
2023-02-11T01:57:52.996Z,100579.82
2023-02-11T02:00:26.415Z,100571.64
2023-02-11T02:03:22.728Z,100574.76
2023-02-11T02:06:01.329Z,100563.52
2023-02-11T02:08:57.756Z,100546.88
2023-02-11T02:11:26.440Z,100544.92
2023-02-11T02:13:54.738Z,100543.91
2023-02-11T02:16:35.011Z,100538.36
2023-02-11T02:19:30.634Z,100547.38
2023-02-11T02:22:28.542Z,100546.52
2023-02-11T02:25:14.598Z,100538.50
2023-02-11T02:28:16.661Z,100528.52
2023-02-11T02:31:31.232Z,100525.73
2023-02-11T02:34:17.855Z,100524.95
2023-02-11T02:36:58.044Z,100518.38
2023-02-11T02:39:31.205Z,100517.80
2023-02-11T02:41:59.972Z,100512.55
2023-02-11T02:44:29.583Z,100518.86
2023-02-11T02:47:00.493Z,100524.94
2023-02-11T02:49:28.600Z,100524.59
2023-02-11T02:52:11.288Z,100524.78
2023-02-11T02:54:54.515Z,100531.15
2023-02-11T02:57:22.351Z,100535.61
2023-02-11T03:00:09.468Z,100542.46
2023-02-11T03:02:56.436Z,100561.36
2023-02-11T03:05:48.596Z,100574.89
2023-02-11T03:08:18.941Z,100584.02
2023-02-11T03:10:51.177Z,100575.81
2023-02-11T03:13:24.760Z,100575.36
2023-02-11T03:15:56.648Z,100543.67
2023-02-11T03:18:29.054Z,100485.89
2023-02-11T03:20:58.217Z,100454.77
2023-02-11T03:23:53.046Z,100450.29
2023-02-11T03:26:44.038Z,100459.14
2023-02-11T03:29:18.638Z,100484.30
2023-02-11T03:31:58.865Z,100480.54
2023-02-11T03:34:42.893Z,100484.08
2023-02-11T03:37:37.394Z,100488.27
2023-02-11T03:40:11.452Z,100504.58
2023-02-11T03:42:58.586Z,100498.08
2023-02-11T03:45:28.666Z,100505.89
2023-02-11T03:48:26.366Z,100502.14
2023-02-11T03:50:56.497Z,100504.48
2023-02-11T03:53:24.717Z,100505.17
2023-02-11T03:55:56.430Z,100509.23
2023-02-11T03:58:25.092Z,100506.85
2023-02-11T04:00:53.394Z,100499.17
2023-02-11T04:03:22.157Z,100480.50
2023-02-11T04:05:50.768Z,100476.80
2023-02-11T04:08:19.272Z,100468.02
2023-02-11T04:10:47.582Z,100457.25
2023-02-11T04:13:15.793Z,100452.66
2023-02-11T04:15:44.078Z,100465.04
2023-02-11T04:18:12.170Z,100473.27
2023-02-11T04:20:40.598Z,100466.61
2023-02-11T04:23:08.736Z,100460.05
2023-02-11T04:25:36.842Z,100452.91
2023-02-11T04:28:05.179Z,100444.38
2023-02-11T04:30:33.369Z,100438.86
2023-02-11T04:33:01.547Z,100441.38
2023-02-11T04:35:29.557Z,100433.14
2023-02-11T04:37:58.343Z,100434.77
2023-02-11T04:40:26.632Z,100428.06
2023-02-11T04:42:55.075Z,100422.86
2023-02-11T04:45:22.986Z,100423.27
2023-02-11T04:47:51.155Z,100412.44
2023-02-11T04:50:19.386Z,100404.27
2023-02-11T04:52:47.456Z,100395.14
2023-02-11T04:55:15.669Z,100399.98
2023-02-11T04:57:43.949Z,100411.27
2023-02-11T05:00:12.782Z,100416.85
2023-02-11T05:02:40.893Z,100423.44
2023-02-11T05:05:09.315Z,100430.13
2023-02-11T05:07:37.489Z,100433.06
2023-02-11T05:10:06.126Z,100428.00
2023-02-11T05:12:34.465Z,100423.77
2023-02-11T05:15:05.100Z,100424.70
2023-02-11T05:17:33.218Z,100421.58
2023-02-11T05:20:01.588Z,100428.45
2023-02-11T05:22:30.109Z,100424.30
2023-02-11T05:24:58.291Z,100415.73
2023-02-11T05:27:26.566Z,100403.83
2023-02-11T05:29:54.843Z,100403.84
2023-02-11T05:32:25.402Z,100405.56
2023-02-11T05:34:53.870Z,100407.08
2023-02-11T05:37:22.043Z,100407.02
2023-02-11T05:39:50.550Z,100409.06
2023-02-11T05:42:19.036Z,100398.13
2023-02-11T05:44:50.250Z,100395.77
2023-02-11T05:47:21.086Z,100388.36
2023-02-11T05:49:49.642Z,100387.69
2023-02-11T05:52:17.904Z,100383.65
2023-02-11T05:54:48.788Z,100377.67
2023-02-11T05:57:17.730Z,100375.16
2023-02-11T05:59:46.943Z,100374.83
2023-02-11T06:02:17.058Z,100378.73
2023-02-11T06:04:45.417Z,100378.16
2023-02-11T06:07:13.579Z,100374.41
2023-02-11T06:09:51.022Z,100378.61
2023-02-11T06:12:19.494Z,100375.74
2023-02-11T06:14:50.053Z,100374.52
2023-02-11T06:17:18.245Z,100369.91
2023-02-11T06:19:48.572Z,100367.52
2023-02-11T06:22:17.192Z,100369.45
2023-02-11T06:25:00.251Z,100367.98
2023-02-11T06:27:29.191Z,100369.43
2023-02-11T06:29:57.232Z,100365.94
2023-02-11T06:32:45.139Z,100362.99
2023-02-11T06:35:16.479Z,100362.95
2023-02-11T06:37:44.682Z,100366.56
2023-02-11T06:40:12.851Z,100359.59
2023-02-11T06:49:55.759Z,100342.02
2023-02-11T06:52:24.209Z,100334.70
2023-02-11T06:54:53.032Z,100336.15
2023-02-11T06:57:22.397Z,100335.48
2023-02-11T06:59:50.763Z,100339.25
2023-02-11T07:02:20.979Z,100338.52
2023-02-11T07:04:50.872Z,100328.86
2023-02-11T07:07:19.181Z,100318.89
2023-02-11T07:09:51.401Z,100307.15
2023-02-11T07:27:11.727Z,100296.45
2023-02-11T07:29:40.127Z,100291.70
2023-02-11T07:32:08.530Z,100285.15
2023-02-11T07:34:38.898Z,100283.64
2023-02-11T07:37:07.910Z,100277.39
2023-02-11T07:39:36.142Z,100291.27
2023-02-11T07:42:04.783Z,100284.30
2023-02-11T07:44:33.587Z,100287.33
2023-02-11T07:51:32.316Z,100276.94
2023-02-11T07:54:00.933Z,100266.48
2023-02-11T07:56:38.317Z,100257.00
2023-02-11T07:59:07.345Z,100247.39
2023-02-11T08:01:35.517Z,100226.52
2023-02-11T08:04:03.981Z,100218.16
2023-02-11T08:06:37.254Z,100204.30
2023-02-11T08:09:17.082Z,100179.39
2023-02-11T08:12:22.829Z,100149.98
2023-02-11T08:23:38.449Z,100013.48
2023-02-11T08:27:32.526Z,99978.92
2023-02-11T09:12:49.696Z,99546.52
2023-02-11T11:11:37.184Z,99079.92
2023-02-11T11:14:39.836Z,99059.69
2023-02-11T13:07:37.090Z,98835.80
2023-02-11T14:01:33.163Z,98498.81
2023-02-11T14:39:40.369Z,98642.77
2023-02-11T15:15:40.587Z,98720.23
2023-02-11T15:40:06.892Z,98747.22
2023-02-11T15:42:47.190Z,98759.05
2023-02-11T15:45:36.276Z,98762.94
2023-02-11T15:48:44.304Z,98769.79
2023-02-11T16:01:39.328Z,98797.52
2023-02-11T17:01:16.752Z,98864.94
2023-02-11T17:03:48.180Z,98873.14
2023-02-11T17:06:29.902Z,98875.84
2023-02-11T17:09:00.122Z,98878.17
2023-02-11T17:11:37.071Z,98875.59
2023-02-11T17:14:05.455Z,98876.82
2023-02-11T17:16:32.493Z,98876.45
2023-02-11T17:18:59.328Z,98876.41
2023-02-11T17:21:28.861Z,98879.73
2023-02-11T17:23:59.328Z,98890.02
2023-02-11T17:26:26.625Z,98896.27
2023-02-11T17:28:53.401Z,98904.19
2023-02-11T17:31:20.537Z,98907.74
2023-02-11T17:33:50.740Z,98910.84
2023-02-11T17:36:18.263Z,98917.14
2023-02-11T17:50:10.261Z,98938.55
2023-02-11T17:52:42.501Z,98955.11
2023-02-11T17:55:19.492Z,98972.31
2023-02-11T17:57:48.597Z,98978.91
2023-02-11T18:00:19.803Z,98989.48
2023-02-11T18:02:47.050Z,99003.02
2023-02-11T18:05:17.157Z,99011.96
2023-02-11T18:07:47.098Z,99014.13
2023-02-11T18:10:16.604Z,99027.41
2023-02-11T18:12:47.481Z,99032.38
2023-02-11T18:15:15.301Z,99047.10
2023-02-11T18:17:45.349Z,99044.73
2023-02-11T18:20:12.466Z,99050.89
2023-02-11T18:22:40.572Z,99053.27
2023-02-11T18:25:08.189Z,99060.42
2023-02-11T18:27:35.016Z,99062.92
2023-02-11T18:30:01.789Z,99069.42
2023-02-11T18:32:28.624Z,99070.69
2023-02-11T18:34:55.681Z,99077.35
2023-02-11T18:37:22.426Z,99084.22
2023-02-11T18:39:49.248Z,99086.51
2023-02-11T18:42:16.244Z,99087.55
2023-02-11T18:44:43.483Z,99092.23
2023-02-11T18:47:10.464Z,99094.56
2023-02-11T18:49:37.066Z,99105.52
2023-02-11T18:52:04.313Z,99111.09
2023-02-11T18:54:31.129Z,99115.81
2023-02-11T18:56:57.978Z,99119.27
2023-02-11T18:59:24.754Z,99119.96
2023-02-11T19:01:51.748Z,99124.63
2023-02-11T19:04:19.297Z,99131.32
2023-02-11T19:06:48.814Z,99133.30
2023-02-11T19:09:18.773Z,99133.25
2023-02-11T19:11:53.494Z,99133.27
2023-02-11T19:14:23.953Z,99141.04
2023-02-11T19:16:53.386Z,99143.41
2023-02-11T19:19:22.524Z,99147.70
2023-02-11T19:21:50.435Z,99146.16
2023-02-11T19:24:19.143Z,99146.56
2023-02-11T19:26:47.594Z,99153.23
2023-02-11T19:29:14.560Z,99157.98
2023-02-11T19:31:42.871Z,99155.16
2023-02-11T19:34:12.026Z,99160.28
2023-02-11T19:36:39.259Z,99162.61
2023-02-11T19:39:06.493Z,99168.00
2023-02-11T19:41:33.780Z,99166.63
2023-02-11T19:44:01.074Z,99169.66
2023-02-11T19:46:31.226Z,99173.41
2023-02-11T19:49:02.682Z,99173.34
2023-02-11T19:51:33.094Z,99174.29
2023-02-11T19:54:00.390Z,99178.75
2023-02-11T19:56:30.315Z,99179.33
2023-02-11T19:58:57.482Z,99184.07
2023-02-11T20:01:25.431Z,99187.67
2023-02-11T20:03:54.155Z,99191.31
2023-02-11T20:06:27.473Z,99199.17
2023-02-11T20:08:59.757Z,99200.77
2023-02-11T20:11:29.269Z,99208.02
2023-02-11T20:13:57.751Z,99209.55
2023-02-11T20:16:44.751Z,99212.74
2023-02-11T20:19:20.675Z,99213.73
2023-02-11T20:21:52.358Z,99216.15
2023-02-11T20:24:22.169Z,99210.00
2023-02-11T20:26:56.329Z,99212.04
2023-02-11T20:29:24.934Z,99218.64
2023-02-11T20:31:53.538Z,99215.90
2023-02-11T20:34:21.320Z,99219.70
2023-02-11T20:36:51.180Z,99229.23
2023-02-11T20:39:20.963Z,99233.73
2023-02-11T20:45:18.410Z,99237.24
2023-02-11T20:47:56.103Z,99242.36
2023-02-11T20:50:26.134Z,99252.80
2023-02-11T20:52:53.355Z,99256.10
2023-02-11T20:55:20.634Z,99258.84
2023-02-11T20:57:48.273Z,99266.91
2023-02-11T21:00:15.647Z,99265.06
2023-02-11T21:18:03.258Z,99289.22
2023-02-11T21:20:30.959Z,99295.27
2023-02-11T21:22:58.991Z,99296.30
2023-02-11T21:25:27.118Z,99298.76
2023-02-11T21:27:57.413Z,99303.30
2023-02-11T21:30:26.069Z,99303.79
2023-02-11T21:32:53.396Z,99304.48
2023-02-11T21:35:20.344Z,99306.57
2023-02-11T21:37:47.202Z,99307.75
2023-02-11T21:40:14.366Z,99312.14
2023-02-11T21:42:43.606Z,99314.27
2023-02-11T21:45:10.541Z,99323.04
2023-02-11T21:47:37.378Z,99322.84
2023-02-11T21:50:04.510Z,99321.90
2023-02-11T21:52:31.515Z,99322.43
2023-02-11T21:54:58.527Z,99326.78
2023-02-11T21:57:25.571Z,99328.98
2023-02-11T21:59:53.248Z,99334.67
2023-02-11T22:02:20.079Z,99337.66
2023-02-11T22:42:03.395Z,99385.51
2023-02-11T22:44:30.132Z,99396.30
2023-02-11T22:46:59.621Z,99398.27
2023-02-11T22:52:40.396Z,99410.55
2023-02-11T23:52:50.227Z,99693.45
2023-02-11T23:55:17.102Z,99709.30
2023-02-11T23:57:44.073Z,99718.53
